LSI134 SBSL-SBFZ
Flight info
| Callsign | LSI134 |
|---|---|
| Flight time | 0h 53m |
| Altitude | 31000 |
| Route | KADOT UZ81 FLZ |
| Aircraft | B77L/H-SDE1E2E3FGHIJ2J3J4J5M1RWXY/LB1D1 |
Departure
| Time | 2026-04-25 21:49 |
|---|---|
| Airport | Marechal Cunha Machado International Airport (SBSL) |
Arrival
| Time | 2026-04-25 22:42 |
|---|---|
| Airport | Pinto Martins International Airport (SBFZ) |
| Time | Latitude | Longitude | Altitude | Speed | Heading |
|---|---|---|---|---|---|
| 2026-04-25 21:31 | -2.58508 | -44.23787 | 188 ft | 0 kts | 340° |
| 2026-04-25 21:36 | -2.58520 | -44.23783 | 188 ft | 2 kts | 340° |
| 2026-04-25 21:36 | -2.58534 | -44.23778 | 188 ft | 2 kts | 356° |
| 2026-04-25 21:37 | -2.58549 | -44.23780 | 188 ft | 2 kts | 28° |
| 2026-04-25 21:37 | -2.58557 | -44.23786 | 188 ft | 2 kts | 47° |
| 2026-04-25 21:37 | -2.58564 | -44.23797 | 188 ft | 1 kts | 71° |
| 2026-04-25 21:37 | -2.58565 | -44.23799 | 188 ft | 0 kts | 70° |
| 2026-04-25 21:43 | -2.58563 | -44.23795 | 188 ft | 3 kts | 70° |
| 2026-04-25 21:44 | -2.58544 | -44.23742 | 188 ft | 12 kts | 71° |
| 2026-04-25 21:44 | -2.58517 | -44.23664 | 188 ft | 11 kts | 70° |
| 2026-04-25 21:44 | -2.58465 | -44.23518 | 188 ft | 12 kts | 70° |
| 2026-04-25 21:45 | -2.58455 | -44.23439 | 188 ft | 11 kts | 120° |
| 2026-04-25 21:45 | -2.58493 | -44.23394 | 188 ft | 13 kts | 146° |
| 2026-04-25 21:45 | -2.58596 | -44.23445 | 188 ft | 14 kts | 223° |
| 2026-04-25 21:45 | -2.58680 | -44.23516 | 188 ft | 17 kts | 219° |
| 2026-04-25 21:46 | -2.58781 | -44.23597 | 188 ft | 19 kts | 219° |
| 2026-04-25 21:46 | -2.58895 | -44.23690 | 188 ft | 22 kts | 219° |
| 2026-04-25 21:46 | -2.59019 | -44.23790 | 188 ft | 24 kts | 218° |
| 2026-04-25 21:46 | -2.59158 | -44.23900 | 188 ft | 27 kts | 219° |
| 2026-04-25 21:47 | -2.59328 | -44.24036 | 188 ft | 33 kts | 219° |
| 2026-04-25 21:47 | -2.59524 | -44.24193 | 188 ft | 37 kts | 219° |
| 2026-04-25 21:47 | -2.59641 | -44.24301 | 188 ft | 13 kts | 246° |
| 2026-04-25 21:47 | -2.59679 | -44.24348 | 188 ft | 6 kts | 154° |
| 2026-04-25 21:48 | -2.59673 | -44.24314 | 188 ft | 4 kts | 35° |
| 2026-04-25 21:48 | -2.59671 | -44.24313 | 188 ft | 2 kts | 38° |
| 2026-04-25 21:48 | -2.59419 | -44.24111 | 188 ft | 89 kts | 40° |
| 2026-04-25 21:48 | -2.58715 | -44.23541 | 188 ft | 167 kts | 40° |
| 2026-04-25 21:49 | -2.57715 | -44.22702 | 707 ft | 193 kts | 40° |
| 2026-04-25 21:49 | -2.56709 | -44.21900 | 1803 ft | 183 kts | 38° |
| 2026-04-25 21:49 | -2.55690 | -44.21104 | 2408 ft | 191 kts | 39° |
| 2026-04-25 21:49 | -2.54655 | -44.20274 | 3063 ft | 195 kts | 40° |
| 2026-04-25 21:50 | -2.53602 | -44.19398 | 3596 ft | 205 kts | 48° |
| 2026-04-25 21:50 | -2.52858 | -44.18130 | 3994 ft | 223 kts | 75° |
| 2026-04-25 21:50 | -2.52766 | -44.16536 | 4471 ft | 240 kts | 102° |
| 2026-04-25 21:50 | -2.53164 | -44.15478 | 4830 ft | 252 kts | 122° |
| 2026-04-25 21:51 | -2.54983 | -44.13902 | 5709 ft | 269 kts | 146° |
| 2026-04-25 21:51 | -2.56346 | -44.12645 | 6571 ft | 270 kts | 120° |
| 2026-04-25 21:51 | -2.56998 | -44.10923 | 7399 ft | 273 kts | 104° |
| 2026-04-25 21:51 | -2.57463 | -44.09061 | 8222 ft | 278 kts | 105° |
| 2026-04-25 21:52 | -2.57980 | -44.07207 | 9038 ft | 281 kts | 106° |
| 2026-04-25 21:52 | -2.58533 | -44.05349 | 9859 ft | 284 kts | 107° |
| 2026-04-25 21:52 | -2.59119 | -44.03414 | 10488 ft | 296 kts | 107° |
| 2026-04-25 21:52 | -2.59724 | -44.01418 | 10944 ft | 312 kts | 107° |
| 2026-04-25 21:53 | -2.60375 | -43.99275 | 11431 ft | 329 kts | 107° |
| 2026-04-25 21:53 | -2.61051 | -43.97046 | 11955 ft | 344 kts | 106° |
| 2026-04-25 21:53 | -2.61760 | -43.94709 | 12458 ft | 359 kts | 106° |
| 2026-04-25 21:53 | -2.62498 | -43.92275 | 12942 ft | 374 kts | 106° |
| 2026-04-25 21:54 | -2.63271 | -43.89729 | 13437 ft | 387 kts | 106° |
| 2026-04-25 21:54 | -2.64051 | -43.87156 | 14126 ft | 394 kts | 106° |
| 2026-04-25 21:54 | -2.64853 | -43.84513 | 14866 ft | 399 kts | 106° |
| 2026-04-25 21:54 | -2.65658 | -43.81858 | 15598 ft | 403 kts | 106° |
| 2026-04-25 21:55 | -2.66474 | -43.79168 | 16286 ft | 408 kts | 105° |
| 2026-04-25 21:55 | -2.67298 | -43.76452 | 17010 ft | 411 kts | 105° |
| 2026-04-25 21:55 | -2.68123 | -43.73732 | 17719 ft | 414 kts | 105° |
| 2026-04-25 21:55 | -2.68964 | -43.70958 | 18381 ft | 418 kts | 105° |
| 2026-04-25 21:56 | -2.69808 | -43.68174 | 19034 ft | 422 kts | 105° |
| 2026-04-25 21:56 | -2.70374 | -43.66307 | 19478 ft | 424 kts | 105° |
| 2026-04-25 21:56 | -2.71520 | -43.62525 | 20307 ft | 428 kts | 105° |
| 2026-04-25 21:56 | -2.72384 | -43.59676 | 20881 ft | 432 kts | 105° |
| 2026-04-25 21:57 | -2.73198 | -43.56795 | 21428 ft | 436 kts | 102° |
| 2026-04-25 21:57 | -2.73812 | -43.53831 | 21991 ft | 439 kts | 100° |
| 2026-04-25 21:57 | -2.74418 | -43.50814 | 22595 ft | 441 kts | 100° |
| 2026-04-25 21:57 | -2.75025 | -43.47834 | 23153 ft | 444 kts | 101° |
| 2026-04-25 21:58 | -2.75646 | -43.44811 | 23672 ft | 448 kts | 101° |
| 2026-04-25 21:58 | -2.76279 | -43.41761 | 24241 ft | 451 kts | 101° |
| 2026-04-25 21:58 | -2.76922 | -43.38675 | 24866 ft | 452 kts | 101° |
| 2026-04-25 21:58 | -2.77564 | -43.35607 | 25490 ft | 454 kts | 101° |
| 2026-04-25 21:59 | -2.78216 | -43.32502 | 26039 ft | 458 kts | 101° |
| 2026-04-25 21:59 | -2.78866 | -43.29405 | 26598 ft | 461 kts | 101° |
| 2026-04-25 21:59 | -2.79528 | -43.26259 | 27174 ft | 464 kts | 101° |
| 2026-04-25 22:00 | -2.80644 | -43.20960 | 28081 ft | 471 kts | 101° |
| 2026-04-25 22:00 | -2.81546 | -43.16682 | 28767 ft | 476 kts | 101° |
| 2026-04-25 22:00 | -2.82229 | -43.13438 | 29312 ft | 479 kts | 101° |
| 2026-04-25 22:00 | -2.82914 | -43.10190 | 30032 ft | 478 kts | 101° |
| 2026-04-25 22:01 | -2.83595 | -43.06962 | 30739 ft | 475 kts | 101° |
| 2026-04-25 22:01 | -2.84272 | -43.03752 | 30905 ft | 475 kts | 101° |
| 2026-04-25 22:01 | -2.85404 | -42.98383 | 30915 ft | 470 kts | 101° |
| 2026-04-25 22:02 | -2.86973 | -42.90937 | 30914 ft | 471 kts | 101° |
| 2026-04-25 22:02 | -2.88313 | -42.84579 | 30917 ft | 471 kts | 101° |
| 2026-04-25 22:03 | -2.89665 | -42.78156 | 30919 ft | 472 kts | 101° |
| 2026-04-25 22:03 | -2.91021 | -42.71717 | 30920 ft | 472 kts | 101° |
| 2026-04-25 22:04 | -2.92366 | -42.65332 | 30917 ft | 470 kts | 101° |
| 2026-04-25 22:04 | -2.93709 | -42.58948 | 30921 ft | 471 kts | 101° |
| 2026-04-25 22:05 | -2.95054 | -42.52556 | 30920 ft | 472 kts | 101° |
| 2026-04-25 22:05 | -2.96407 | -42.46123 | 30922 ft | 472 kts | 101° |
| 2026-04-25 22:06 | -2.97753 | -42.39724 | 30930 ft | 472 kts | 101° |
| 2026-04-25 22:06 | -2.99101 | -42.33310 | 30935 ft | 472 kts | 101° |
| 2026-04-25 22:07 | -3.00225 | -42.27959 | 30935 ft | 472 kts | 101° |
| 2026-04-25 22:07 | -3.01800 | -42.20465 | 30933 ft | 471 kts | 101° |
| 2026-04-25 22:08 | -3.03148 | -42.14044 | 30934 ft | 472 kts | 101° |
| 2026-04-25 22:08 | -3.04456 | -42.07634 | 30932 ft | 473 kts | 100° |
| 2026-04-25 22:09 | -3.05764 | -42.01201 | 30934 ft | 471 kts | 100° |
| 2026-04-25 22:09 | -3.07070 | -41.94783 | 30932 ft | 472 kts | 100° |
| 2026-04-25 22:10 | -3.08371 | -41.88387 | 30933 ft | 472 kts | 100° |
| 2026-04-25 22:10 | -3.09687 | -41.81918 | 30935 ft | 474 kts | 100° |
| 2026-04-25 22:11 | -3.11005 | -41.75458 | 30936 ft | 474 kts | 101° |
| 2026-04-25 22:11 | -3.12344 | -41.69009 | 30934 ft | 474 kts | 101° |
| 2026-04-25 22:12 | -3.13685 | -41.62551 | 30935 ft | 474 kts | 101° |
| 2026-04-25 22:12 | -3.14798 | -41.57185 | 30929 ft | 476 kts | 101° |
| 2026-04-25 22:13 | -3.16355 | -41.49678 | 30940 ft | 474 kts | 101° |
| 2026-04-25 22:13 | -3.17698 | -41.43194 | 30936 ft | 476 kts | 101° |
| 2026-04-25 22:14 | -3.19040 | -41.36718 | 30938 ft | 476 kts | 101° |
| 2026-04-25 22:14 | -3.20384 | -41.30227 | 30935 ft | 476 kts | 101° |
| 2026-04-25 22:15 | -3.21719 | -41.23778 | 30934 ft | 477 kts | 101° |
| 2026-04-25 22:16 | -3.23357 | -41.15860 | 30938 ft | 477 kts | 101° |
| 2026-04-25 22:16 | -3.23859 | -41.13432 | 30948 ft | 478 kts | 101° |
| 2026-04-25 22:17 | -3.24604 | -41.09829 | 30954 ft | 478 kts | 101° |
| 2026-04-25 22:17 | -3.25948 | -41.03334 | 30960 ft | 479 kts | 101° |
| 2026-04-25 22:18 | -3.27291 | -40.96836 | 30960 ft | 479 kts | 101° |
| 2026-04-25 22:18 | -3.28639 | -40.90310 | 30956 ft | 478 kts | 101° |
| 2026-04-25 22:19 | -3.29979 | -40.83815 | 30940 ft | 478 kts | 100° |
| 2026-04-25 22:19 | -3.31315 | -40.77335 | 30964 ft | 478 kts | 101° |
| 2026-04-25 22:20 | -3.32654 | -40.70834 | 30957 ft | 478 kts | 101° |
| 2026-04-25 22:20 | -3.34000 | -40.64299 | 30943 ft | 479 kts | 101° |
| 2026-04-25 22:21 | -3.35338 | -40.57799 | 30948 ft | 478 kts | 101° |
| 2026-04-25 22:21 | -3.36684 | -40.51255 | 30954 ft | 479 kts | 101° |
| 2026-04-25 22:22 | -3.38018 | -40.44719 | 30961 ft | 479 kts | 101° |
| 2026-04-25 22:22 | -3.39344 | -40.38215 | 30952 ft | 478 kts | 101° |
| 2026-04-25 22:23 | -3.40678 | -40.31667 | 30952 ft | 479 kts | 101° |
| 2026-04-25 22:23 | -3.42013 | -40.25116 | 30944 ft | 479 kts | 101° |
| 2026-04-25 22:24 | -3.43340 | -40.18604 | 30941 ft | 477 kts | 101° |
| 2026-04-25 22:24 | -3.44613 | -40.12126 | 30874 ft | 469 kts | 98° |
| 2026-04-25 22:24 | -3.45054 | -40.08923 | 30324 ft | 466 kts | 97° |
| 2026-04-25 22:25 | -3.45478 | -40.05700 | 29464 ft | 469 kts | 97° |
| 2026-04-25 22:25 | -3.45906 | -40.02479 | 28720 ft | 469 kts | 97° |
| 2026-04-25 22:25 | -3.46402 | -39.99271 | 28186 ft | 465 kts | 101° |
| 2026-04-25 22:25 | -3.47072 | -39.96149 | 27727 ft | 459 kts | 102° |
| 2026-04-25 22:26 | -3.47756 | -39.93037 | 27242 ft | 455 kts | 101° |
| 2026-04-25 22:26 | -3.48426 | -39.89966 | 26691 ft | 452 kts | 101° |
| 2026-04-25 22:26 | -3.49083 | -39.86938 | 26140 ft | 449 kts | 101° |
| 2026-04-25 22:26 | -3.49743 | -39.83884 | 25542 ft | 446 kts | 101° |
| 2026-04-25 22:27 | -3.50393 | -39.80866 | 24878 ft | 443 kts | 101° |
| 2026-04-25 22:27 | -3.51033 | -39.77880 | 24266 ft | 438 kts | 101° |
| 2026-04-25 22:27 | -3.51664 | -39.74940 | 23702 ft | 433 kts | 101° |
| 2026-04-25 22:27 | -3.52292 | -39.72006 | 23148 ft | 428 kts | 101° |
| 2026-04-25 22:28 | -3.52908 | -39.69124 | 22537 ft | 424 kts | 101° |
| 2026-04-25 22:28 | -3.53518 | -39.66264 | 21930 ft | 421 kts | 101° |
| 2026-04-25 22:28 | -3.54127 | -39.63411 | 21371 ft | 418 kts | 101° |
| 2026-04-25 22:28 | -3.54730 | -39.60585 | 20847 ft | 417 kts | 101° |
| 2026-04-25 22:29 | -3.55334 | -39.57753 | 20345 ft | 414 kts | 101° |
| 2026-04-25 22:29 | -3.55931 | -39.54950 | 19887 ft | 410 kts | 101° |
| 2026-04-25 22:29 | -3.56523 | -39.52173 | 19401 ft | 407 kts | 101° |
| 2026-04-25 22:30 | -3.57691 | -39.46690 | 18395 ft | 402 kts | 101° |
| 2026-04-25 22:30 | -3.58269 | -39.43978 | 17908 ft | 399 kts | 101° |
| 2026-04-25 22:30 | -3.58849 | -39.41250 | 17420 ft | 397 kts | 101° |
| 2026-04-25 22:30 | -3.59231 | -39.39460 | 17088 ft | 395 kts | 101° |
| 2026-04-25 22:31 | -3.59988 | -39.35902 | 16407 ft | 393 kts | 101° |
| 2026-04-25 22:31 | -3.60555 | -39.33235 | 15999 ft | 388 kts | 101° |
| 2026-04-25 22:31 | -3.61117 | -39.30596 | 15541 ft | 385 kts | 101° |
| 2026-04-25 22:31 | -3.61668 | -39.28004 | 15061 ft | 383 kts | 102° |
| 2026-04-25 22:32 | -3.62219 | -39.25415 | 14788 ft | 374 kts | 102° |
| 2026-04-25 22:32 | -3.62749 | -39.22921 | 14749 ft | 358 kts | 102° |
| 2026-04-25 22:32 | -3.63253 | -39.20552 | 14737 ft | 343 kts | 102° |
| 2026-04-25 22:32 | -3.63719 | -39.18277 | 14704 ft | 329 kts | 101° |
| 2026-04-25 22:33 | -3.64141 | -39.16060 | 14694 ft | 313 kts | 101° |
| 2026-04-25 22:33 | -3.64536 | -39.13980 | 14657 ft | 300 kts | 101° |
| 2026-04-25 22:33 | -3.64923 | -39.11956 | 14383 ft | 296 kts | 101° |
| 2026-04-25 22:33 | -3.65312 | -39.09936 | 14001 ft | 296 kts | 101° |
| 2026-04-25 22:34 | -3.65702 | -39.07912 | 13644 ft | 295 kts | 101° |
| 2026-04-25 22:34 | -3.66089 | -39.05906 | 13283 ft | 294 kts | 102° |
| 2026-04-25 22:34 | -3.66480 | -39.03881 | 12940 ft | 292 kts | 102° |
| 2026-04-25 22:34 | -3.66859 | -39.01915 | 12620 ft | 290 kts | 102° |
| 2026-04-25 22:35 | -3.67240 | -38.99939 | 12276 ft | 289 kts | 102° |
| 2026-04-25 22:35 | -3.67618 | -38.97978 | 11939 ft | 287 kts | 102° |
| 2026-04-25 22:35 | -3.67998 | -38.96008 | 11556 ft | 285 kts | 102° |
| 2026-04-25 22:35 | -3.68371 | -38.94070 | 11109 ft | 285 kts | 102° |
| 2026-04-25 22:36 | -3.68749 | -38.92107 | 10670 ft | 285 kts | 102° |
| 2026-04-25 22:36 | -3.69119 | -38.90190 | 10283 ft | 282 kts | 102° |
| 2026-04-25 22:36 | -3.69491 | -38.88255 | 9888 ft | 280 kts | 102° |
| 2026-04-25 22:36 | -3.69858 | -38.86353 | 9537 ft | 278 kts | 102° |
| 2026-04-25 22:37 | -3.70220 | -38.84473 | 9244 ft | 272 kts | 102° |
| 2026-04-25 22:37 | -3.70567 | -38.82667 | 9179 ft | 256 kts | 102° |
| 2026-04-25 22:37 | -3.70904 | -38.80917 | 8746 ft | 256 kts | 102° |
| 2026-04-25 22:37 | -3.71242 | -38.79164 | 8294 ft | 256 kts | 102° |
| 2026-04-25 22:38 | -3.71573 | -38.77445 | 7935 ft | 252 kts | 102° |
| 2026-04-25 22:38 | -3.71896 | -38.75766 | 7402 ft | 244 kts | 102° |
| 2026-04-25 22:38 | -3.72218 | -38.74095 | 6616 ft | 246 kts | 103° |
| 2026-04-25 22:38 | -3.72542 | -38.72413 | 6035 ft | 241 kts | 103° |
| 2026-04-25 22:39 | -3.72856 | -38.70781 | 5419 ft | 240 kts | 102° |
| 2026-04-25 22:39 | -3.73280 | -38.69185 | 4800 ft | 236 kts | 108° |
| 2026-04-25 22:39 | -3.73759 | -38.67642 | 4155 ft | 232 kts | 107° |
| 2026-04-25 22:39 | -3.74187 | -38.66112 | 3531 ft | 226 kts | 105° |
| 2026-04-25 22:40 | -3.74582 | -38.64612 | 2929 ft | 220 kts | 104° |
| 2026-04-25 22:40 | -3.74963 | -38.63156 | 2314 ft | 213 kts | 104° |
| 2026-04-25 22:40 | -3.75341 | -38.61744 | 1703 ft | 209 kts | 103° |
| 2026-04-25 22:40 | -3.75710 | -38.60371 | 1225 ft | 200 kts | 103° |
| 2026-04-25 22:41 | -3.76057 | -38.59079 | 992 ft | 182 kts | 103° |
| 2026-04-25 22:41 | -3.76375 | -38.57899 | 788 ft | 169 kts | 104° |
| 2026-04-25 22:41 | -3.76670 | -38.56806 | 591 ft | 159 kts | 104° |
| 2026-04-25 22:41 | -3.76959 | -38.55738 | 380 ft | 160 kts | 105° |
| 2026-04-25 22:42 | -3.77251 | -38.54663 | 189 ft | 160 kts | 105° |
| 2026-04-25 22:42 | -3.77531 | -38.53624 | 100 ft | 135 kts | 104° |
| 2026-04-25 22:42 | -3.77685 | -38.53032 | 96 ft | 50 kts | 104° |
| 2026-04-25 22:42 | -3.77766 | -38.52734 | 94 ft | 18 kts | 104° |
| 2026-04-25 22:43 | -3.77785 | -38.52669 | 94 ft | 12 kts | 106° |
| 2026-04-25 22:43 | -3.77831 | -38.52611 | 93 ft | 9 kts | 179° |
| 2026-04-25 22:43 | -3.77870 | -38.52659 | 94 ft | 9 kts | 243° |
| 2026-04-25 22:43 | -3.77905 | -38.52726 | 95 ft | 12 kts | 243° |
| 2026-04-25 22:44 | -3.77910 | -38.52806 | 95 ft | 11 kts | 286° |
| 2026-04-25 22:44 | -3.77889 | -38.52878 | 96 ft | 10 kts | 285° |
| 2026-04-25 22:44 | -3.77869 | -38.52951 | 96 ft | 12 kts | 284° |
| 2026-04-25 22:44 | -3.77845 | -38.53048 | 97 ft | 16 kts | 284° |
| 2026-04-25 22:45 | -3.77814 | -38.53160 | 98 ft | 14 kts | 285° |
| 2026-04-25 22:45 | -3.77803 | -38.53204 | 98 ft | 5 kts | 284° |
| 2026-04-25 22:45 | -3.77816 | -38.53235 | 99 ft | 6 kts | 216° |
| 2026-04-25 22:45 | -3.77853 | -38.53250 | 99 ft | 4 kts | 195° |
| 2026-04-25 22:46 | -3.77861 | -38.53252 | 99 ft | 0 kts | 195° |
| 2026-04-25 22:46 | -3.77862 | -38.53252 | 99 ft | 0 kts | 195° |